createdAt,value
2018-07-23T03:17:29.711Z,57.94
2018-07-23T03:20:00.785Z,58.69
2018-07-23T03:22:31.750Z,58.10
2018-07-23T03:25:02.803Z,58.96
2018-07-23T03:27:33.702Z,58.30
2018-07-23T03:30:05.032Z,58.29
2018-07-23T03:32:36.341Z,58.70
2018-07-23T03:35:07.400Z,57.43
2018-07-23T03:37:38.606Z,57.41
2018-07-23T03:40:09.705Z,57.31
2018-07-23T03:42:52.258Z,58.20
2018-07-23T03:45:23.608Z,58.22
2018-07-23T03:47:55.186Z,58.16
2018-07-23T03:50:26.326Z,57.71
2018-07-23T03:52:57.594Z,57.75
2018-07-23T03:55:28.464Z,58.76
2018-07-23T03:57:59.749Z,58.72
2018-07-23T04:00:30.698Z,58.25
2018-07-23T04:03:01.672Z,58.88
2018-07-23T04:05:32.672Z,58.96
2018-07-23T04:08:03.766Z,58.57
2018-07-23T04:10:34.783Z,57.58
2018-07-23T04:13:05.742Z,58.42
2018-07-23T04:15:36.577Z,58.35
2018-07-23T04:18:07.634Z,58.55
2018-07-23T04:20:38.564Z,58.98
2018-07-23T04:23:09.570Z,58.02
2018-07-23T04:25:45.621Z,58.14
2018-07-23T04:28:16.906Z,58.05
2018-07-23T04:30:47.961Z,58.95
2018-07-23T04:33:18.891Z,59.33
2018-07-23T04:35:49.960Z,59.20
2018-07-23T04:38:27.114Z,58.87
2018-07-23T04:40:59.393Z,58.82
2018-07-23T04:43:30.319Z,58.99
2018-07-23T04:46:01.330Z,59.64
2018-07-23T04:48:32.319Z,59.88
2018-07-23T04:51:03.695Z,58.55
2018-07-23T04:53:34.904Z,59.01
2018-07-23T04:56:06.806Z,59.17
2018-07-23T04:58:37.497Z,59.96
2018-07-23T05:01:08.719Z,59.37
2018-07-23T05:03:39.608Z,59.96
2018-07-23T05:06:11.265Z,59.93
2018-07-23T05:08:42.443Z,59.07
2018-07-23T05:11:13.685Z,59.22
2018-07-23T05:13:44.729Z,59.18
2018-07-23T05:16:15.751Z,59.35
2018-07-23T05:18:46.683Z,60.10
2018-07-23T05:21:17.679Z,59.78
2018-07-23T05:23:48.642Z,60.32
2018-07-23T05:26:19.776Z,59.98
2018-07-23T05:28:50.800Z,59.08
2018-07-23T05:31:21.712Z,58.51
2018-07-23T05:33:52.639Z,59.90
2018-07-23T05:36:23.661Z,59.95
2018-07-23T05:38:54.734Z,58.92
2018-07-23T05:41:25.996Z,58.73
2018-07-23T05:43:57.326Z,58.09
2018-07-23T05:46:28.198Z,58.77
2018-07-23T05:48:59.144Z,58.68
2018-07-23T05:51:30.304Z,57.84
2018-07-23T05:54:01.391Z,58.43
2018-07-23T05:56:32.452Z,57.49
2018-07-23T05:59:03.398Z,57.25
2018-07-23T06:01:34.630Z,57.65
2018-07-23T06:04:05.746Z,56.99
2018-07-23T06:06:36.701Z,56.34
2018-07-23T06:09:10.106Z,56.66
2018-07-23T06:11:41.148Z,56.34
2018-07-23T06:14:12.153Z,56.82
2018-07-23T06:16:43.212Z,55.80
2018-07-23T06:19:14.374Z,56.71
2018-07-23T06:21:45.702Z,56.10
2018-07-23T06:24:16.654Z,55.81
2018-07-23T06:26:47.613Z,55.50
2018-07-23T06:29:19.530Z,54.76
2018-07-23T06:31:50.462Z,53.52
2018-07-23T06:34:21.406Z,52.14
2018-07-23T06:37:03.000Z,52.46
2018-07-23T06:39:34.451Z,52.25
2018-07-23T06:42:05.400Z,51.05
2018-07-23T06:44:36.392Z,50.83
2018-07-23T06:47:07.818Z,50.13
2018-07-23T06:49:38.813Z,50.32
2018-07-23T06:52:11.661Z,48.79
2018-07-23T06:54:42.746Z,47.66
2018-07-23T06:57:13.793Z,47.96
2018-07-23T06:59:44.798Z,46.25
2018-07-23T07:02:21.327Z,47.25
2018-07-23T07:04:56.834Z,45.10
2018-07-23T07:07:27.785Z,44.57
2018-07-23T07:09:58.893Z,46.45
2018-07-23T07:12:30.505Z,46.17
2018-07-23T07:15:01.725Z,44.47
2018-07-23T07:17:32.603Z,42.12
2018-07-23T07:20:03.506Z,40.97
2018-07-23T07:22:34.403Z,41.95
2018-07-23T07:25:05.295Z,41.16
2018-07-23T07:27:39.218Z,40.92
2018-07-23T07:30:12.593Z,41.52
2018-07-23T07:32:43.714Z,40.70
2018-07-23T07:35:19.426Z,41.71
2018-07-23T07:37:56.433Z,42.11
2018-07-23T07:40:32.100Z,40.49
2018-07-23T07:43:03.108Z,40.93
2018-07-23T07:45:34.282Z,40.51
2018-07-23T07:48:05.664Z,41.27
2018-07-23T07:50:36.669Z,41.86
2018-07-23T07:53:07.699Z,40.92
2018-07-23T07:56:01.384Z,41.07
2018-07-23T08:04:54.563Z,39.00
2018-07-23T08:07:55.888Z,40.83
2018-07-23T08:11:36.610Z,40.47
2018-07-23T08:17:29.884Z,41.14
2018-07-23T08:20:10.070Z,40.94
2018-07-23T08:22:52.216Z,38.45
2018-07-23T08:25:44.299Z,39.14
2018-07-23T08:28:22.969Z,40.32
2018-07-23T08:40:43.819Z,37.56
2018-07-23T08:46:25.550Z,39.06
2018-07-23T08:48:58.778Z,39.12
2018-07-23T08:51:30.608Z,37.63
2018-07-23T08:54:05.677Z,38.43
2018-07-23T08:56:36.922Z,38.99
2018-07-23T08:59:08.718Z,38.66
2018-07-23T09:01:44.070Z,38.85
2018-07-23T09:04:15.796Z,38.16
2018-07-23T09:06:47.362Z,38.29
2018-07-23T09:09:18.309Z,37.45
2018-07-23T09:11:49.232Z,37.25
2018-07-23T09:14:20.257Z,39.02
2018-07-23T09:16:51.242Z,37.79
2018-07-23T09:19:22.147Z,36.90
2018-07-23T09:21:53.618Z,36.56
2018-07-23T09:24:24.529Z,36.26
2018-07-23T09:26:58.537Z,36.00
2018-07-23T09:29:30.474Z,36.53
2018-07-23T09:32:04.918Z,38.56
2018-07-23T09:34:38.282Z,37.36
2018-07-23T09:37:12.443Z,38.18
2018-07-23T09:39:44.012Z,38.74
2018-07-23T09:42:15.306Z,39.80
2018-07-23T09:44:46.315Z,39.04
2018-07-23T09:47:20.872Z,38.53
2018-07-23T09:49:53.939Z,38.03
2018-07-23T09:52:25.580Z,38.05
2018-07-23T09:54:56.467Z,38.85
2018-07-23T09:57:27.487Z,38.41
2018-07-23T10:00:02.398Z,38.05
2018-07-23T10:06:42.157Z,38.96
2018-07-23T10:09:23.377Z,39.62
2018-07-23T10:12:09.961Z,39.27
2018-07-23T10:14:45.353Z,39.34
2018-07-23T10:17:17.151Z,40.07
2018-07-23T10:19:47.982Z,39.72
2018-07-23T10:22:27.165Z,39.24
2018-07-23T10:24:58.073Z,39.67
2018-07-23T10:27:29.174Z,38.75
2018-07-23T10:30:11.930Z,39.92
2018-07-23T10:32:47.584Z,39.38
2018-07-23T10:35:19.141Z,38.31
2018-07-23T10:37:50.020Z,39.42
2018-07-23T10:40:21.086Z,38.07
2018-07-23T10:42:51.981Z,40.05
2018-07-23T10:45:25.532Z,40.97
2018-07-23T10:47:57.074Z,40.90
2018-07-23T10:50:28.334Z,39.08
2018-07-23T10:52:59.569Z,39.51
2018-07-23T10:55:34.720Z,38.67
2018-07-23T10:58:05.793Z,38.33
2018-07-23T11:00:36.722Z,38.04
2018-07-23T11:03:08.057Z,39.05
2018-07-23T11:05:39.034Z,38.27
2018-07-23T11:08:10.062Z,38.62
2018-07-23T11:10:41.073Z,37.82
2018-07-23T11:13:11.953Z,37.28
2018-07-23T11:18:36.960Z,37.01
2018-07-23T11:21:08.307Z,36.40
2018-07-23T11:23:39.302Z,36.64
2018-07-23T11:26:10.281Z,35.95
2018-07-23T11:28:41.078Z,38.12
2018-07-23T11:31:12.325Z,38.91
2018-07-23T11:33:43.276Z,39.70
2018-07-23T11:36:18.637Z,40.09
2018-07-23T11:38:49.721Z,40.56
2018-07-23T11:41:26.098Z,39.56
2018-07-23T11:44:01.433Z,39.83
2018-07-23T11:46:34.089Z,39.08
2018-07-23T11:49:06.119Z,39.96
2018-07-23T11:51:38.157Z,40.52
2018-07-23T11:54:09.628Z,39.29
2018-07-23T11:56:40.908Z,40.77
2018-07-23T11:59:12.145Z,40.14
2018-07-23T12:01:43.078Z,39.52
2018-07-23T12:04:14.958Z,39.21
2018-07-23T12:06:46.045Z,38.59
2018-07-23T12:09:17.003Z,38.55
2018-07-23T12:11:50.050Z,38.92
2018-07-23T12:14:22.827Z,38.32
2018-07-23T12:17:00.519Z,39.18
2018-07-23T12:19:34.328Z,40.19
2018-07-23T12:22:05.281Z,39.27
2018-07-23T12:24:39.102Z,39.48
2018-07-23T12:27:11.821Z,39.54
2018-07-23T12:29:42.809Z,38.79
2018-07-23T12:32:18.011Z,39.10
2018-07-23T12:34:51.564Z,38.14
2018-07-23T12:37:25.752Z,37.74
2018-07-23T12:39:57.569Z,38.64
2018-07-23T12:42:31.380Z,37.57
2018-07-23T12:45:04.277Z,38.11
2018-07-23T12:47:43.428Z,37.99
2018-07-23T12:50:14.408Z,37.18
2018-07-23T12:52:46.337Z,36.80
2018-07-23T12:55:17.776Z,37.75
2018-07-23T12:57:48.726Z,37.96
2018-07-23T13:00:20.013Z,36.91
2018-07-23T13:02:50.907Z,37.07
2018-07-23T13:05:25.792Z,37.63
2018-07-23T13:07:58.202Z,37.04
2018-07-23T13:10:34.468Z,38.64
2018-07-23T13:13:06.897Z,37.51
2018-07-23T13:15:39.148Z,38.28
2018-07-23T13:18:16.162Z,37.31
2018-07-23T13:20:47.278Z,39.34
2018-07-23T13:23:18.336Z,38.78
2018-07-23T13:25:51.988Z,38.10
2018-07-23T13:28:23.788Z,38.66
2018-07-23T13:30:55.649Z,38.94
2018-07-23T13:33:26.747Z,37.73
2018-07-23T13:35:58.659Z,38.25
2018-07-23T13:38:29.909Z,36.95
2018-07-23T13:41:01.029Z,38.18
2018-07-23T13:43:41.539Z,36.97
2018-07-23T13:46:23.235Z,36.72
2018-07-23T13:48:54.468Z,37.44
2018-07-23T13:51:25.885Z,37.04
2018-07-23T13:53:56.928Z,37.99
2018-07-23T13:56:34.342Z,36.65
2018-07-23T13:59:05.344Z,36.73
2018-07-23T14:01:36.612Z,36.59
2018-07-23T14:04:07.692Z,36.53
2018-07-23T14:06:38.667Z,36.72
2018-07-23T14:09:11.913Z,36.95
2018-07-23T14:11:43.248Z,38.35
2018-07-23T14:14:14.201Z,37.20
2018-07-23T14:16:45.111Z,36.79
2018-07-23T14:19:18.595Z,36.11
2018-07-23T14:21:49.606Z,38.05
2018-07-23T14:24:20.519Z,37.38
2018-07-23T14:26:51.557Z,37.62
2018-07-23T14:29:22.970Z,37.92
2018-07-23T14:31:54.095Z,36.52
2018-07-23T14:34:24.979Z,38.16
2018-07-23T14:36:56.066Z,38.08
2018-07-23T14:39:26.978Z,37.89
2018-07-23T14:41:58.101Z,38.55
2018-07-23T14:44:29.274Z,37.52
2018-07-23T14:47:02.847Z,37.24
2018-07-23T14:49:33.724Z,36.61
2018-07-23T14:52:06.754Z,36.60
2018-07-23T14:54:37.687Z,37.87
2018-07-23T14:57:09.063Z,37.52
2018-07-23T14:59:40.060Z,37.70
2018-07-23T15:02:11.024Z,38.38
2018-07-23T15:04:41.960Z,37.13
2018-07-23T15:07:12.879Z,36.87
2018-07-23T15:09:44.076Z,36.88
2018-07-23T15:12:15.767Z,37.90
2018-07-23T15:14:46.677Z,36.30
2018-07-23T15:17:17.985Z,37.29
2018-07-23T15:19:49.603Z,36.66
2018-07-23T15:22:20.976Z,35.99
2018-07-23T15:24:51.896Z,36.00
2018-07-23T15:27:22.800Z,35.31
2018-07-23T15:29:53.796Z,37.11
2018-07-23T15:32:24.734Z,37.01
2018-07-23T15:35:01.281Z,36.60
2018-07-23T15:37:32.241Z,36.49
2018-07-23T15:40:03.275Z,37.28
2018-07-23T15:42:34.229Z,36.69
2018-07-23T15:45:05.308Z,37.70
2018-07-23T15:47:36.581Z,37.16
2018-07-23T15:50:07.474Z,37.06
2018-07-23T15:52:39.136Z,36.50
2018-07-23T15:55:10.562Z,36.58
2018-07-23T15:57:41.479Z,36.57
2018-07-23T16:00:12.586Z,37.12
2018-07-23T16:02:43.557Z,36.62
2018-07-23T16:05:14.546Z,36.68
2018-07-23T16:07:45.455Z,37.53
2018-07-23T16:10:16.377Z,36.50
2018-07-23T16:12:47.368Z,36.14
2018-07-23T16:15:18.452Z,36.38
2018-07-23T16:17:49.742Z,36.05
2018-07-23T16:20:22.875Z,36.69
2018-07-23T16:22:54.182Z,37.04
2018-07-23T16:25:25.073Z,36.25
2018-07-23T16:27:55.975Z,37.82
2018-07-23T16:30:27.225Z,36.94
2018-07-23T16:32:58.171Z,37.90
2018-07-23T16:35:29.467Z,36.80
2018-07-23T16:38:00.755Z,38.11
2018-07-23T16:40:32.042Z,37.68
2018-07-23T16:43:02.927Z,36.66
2018-07-23T16:45:33.784Z,36.75
2018-07-23T16:50:58.866Z,37.74
2018-07-23T16:53:29.782Z,36.50
2018-07-23T16:56:02.285Z,37.55
2018-07-23T16:58:33.584Z,37.07
2018-07-23T17:01:05.118Z,37.57
2018-07-23T17:03:36.237Z,37.67
2018-07-23T17:06:07.752Z,36.27
2018-07-23T17:08:39.591Z,37.34
2018-07-23T17:11:11.362Z,37.52
2018-07-23T17:13:42.560Z,36.06
2018-07-23T17:16:13.756Z,37.43
2018-07-23T17:18:44.661Z,36.13
2018-07-23T17:21:15.576Z,37.57
2018-07-23T17:23:46.688Z,37.96
2018-07-23T17:26:17.909Z,36.62
2018-07-23T17:28:49.186Z,37.82
2018-07-23T17:31:22.813Z,37.67
2018-07-23T17:33:54.085Z,37.42
2018-07-23T17:36:24.992Z,37.67
2018-07-23T17:39:02.298Z,36.87
2018-07-23T17:41:33.237Z,37.93
2018-07-23T17:44:06.012Z,37.36
2018-07-23T17:46:37.285Z,38.25
2018-07-23T17:49:08.247Z,37.71
2018-07-23T17:51:39.236Z,38.15
2018-07-23T17:54:10.309Z,37.33
2018-07-23T17:56:41.805Z,38.39
2018-07-23T17:59:12.734Z,38.33
2018-07-23T18:01:43.767Z,38.66
2018-07-23T18:04:15.966Z,38.44
2018-07-23T18:06:55.764Z,37.63
2018-07-23T18:09:26.910Z,39.61
2018-07-23T18:11:57.810Z,39.61
2018-07-23T18:14:29.278Z,39.39
2018-07-23T18:17:00.204Z,40.36
2018-07-23T18:19:31.222Z,39.22
2018-07-23T18:22:02.256Z,38.17
2018-07-23T18:24:33.166Z,38.67
2018-07-23T18:27:08.089Z,38.61
2018-07-23T18:29:39.586Z,39.83
2018-07-23T18:32:12.263Z,38.99
2018-07-23T18:34:43.387Z,39.75
2018-07-23T18:37:16.172Z,39.18
2018-07-23T18:39:47.239Z,39.24
2018-07-23T18:42:23.146Z,39.12
2018-07-23T18:44:54.065Z,40.16
2018-07-23T18:47:25.248Z,39.00
2018-07-23T18:49:59.051Z,39.25
2018-07-23T18:52:31.268Z,39.29
2018-07-23T18:55:03.821Z,39.21
2018-07-23T18:57:34.708Z,39.43
2018-07-23T19:00:06.933Z,40.61
2018-07-23T19:02:37.940Z,40.11
2018-07-23T19:05:09.560Z,39.34
2018-07-23T19:07:41.133Z,39.76
2018-07-23T19:10:19.678Z,40.23
2018-07-23T19:12:50.884Z,42.04
2018-07-23T19:15:21.858Z,42.52
2018-07-23T19:17:52.434Z,41.80
2018-07-23T19:20:32.708Z,42.78
2018-07-23T19:23:05.554Z,42.73
2018-07-23T19:25:36.636Z,42.93
2018-07-23T19:28:08.217Z,44.64
2018-07-23T19:30:39.283Z,44.40
2018-07-23T19:33:13.677Z,44.82
2018-07-23T19:35:45.718Z,45.19
2018-07-23T19:38:16.807Z,45.97
2018-07-23T19:43:34.712Z,46.68
2018-07-23T19:46:06.303Z,46.85
2018-07-23T19:48:38.079Z,47.09
2018-07-23T19:51:10.659Z,46.25
2018-07-23T19:53:42.097Z,46.87
2018-07-23T19:56:14.575Z,47.42
2018-07-23T19:58:46.929Z,46.41
2018-07-23T20:01:19.531Z,47.62
2018-07-23T20:03:50.958Z,47.82
2018-07-23T20:06:27.543Z,47.70
2018-07-23T20:08:59.384Z,47.62
2018-07-23T20:11:30.807Z,47.99
2018-07-23T20:14:02.807Z,48.01
2018-07-23T20:16:34.248Z,47.92
2018-07-23T20:19:05.251Z,48.56
2018-07-23T20:21:36.166Z,48.75
2018-07-23T20:24:07.400Z,48.04
2018-07-23T20:26:38.334Z,48.67
2018-07-23T20:29:09.678Z,48.56
2018-07-23T20:31:40.699Z,48.55
2018-07-23T20:34:11.713Z,49.93
2018-07-23T20:36:42.626Z,48.73
2018-07-23T20:39:13.563Z,48.88
2018-07-23T20:41:44.691Z,49.13
2018-07-23T20:44:15.639Z,50.24
2018-07-23T20:46:46.745Z,49.92
2018-07-23T20:49:17.676Z,50.62
2018-07-23T20:51:48.613Z,49.92
2018-07-23T20:54:19.508Z,49.93
2018-07-23T20:56:56.194Z,49.82
2018-07-23T20:59:28.894Z,48.43
2018-07-23T21:02:01.030Z,48.38
2018-07-23T21:04:32.162Z,49.59
2018-07-23T21:07:03.117Z,48.91
2018-07-23T21:09:34.108Z,50.23
2018-07-23T21:12:05.005Z,49.59
2018-07-23T21:14:36.619Z,50.66
2018-07-23T21:17:07.714Z,50.71
2018-07-23T21:19:38.901Z,50.04
2018-07-23T21:22:12.345Z,50.12
2018-07-23T21:24:44.405Z,49.95
2018-07-23T21:27:31.306Z,50.46
2018-07-23T21:30:06.353Z,50.73
2018-07-23T21:32:37.397Z,50.69
2018-07-23T21:35:08.514Z,50.58
2018-07-23T21:37:39.786Z,51.29
2018-07-23T21:40:11.588Z,50.19
2018-07-23T21:42:42.602Z,50.94
2018-07-23T21:45:13.682Z,49.64
2018-07-23T21:47:45.381Z,50.67
2018-07-23T21:50:16.346Z,49.93
2018-07-23T21:52:47.548Z,49.67
2018-07-23T21:55:18.913Z,49.41
2018-07-23T21:57:50.169Z,49.91
2018-07-23T22:00:21.180Z,49.82
2018-07-23T22:02:56.034Z,49.16
2018-07-23T22:05:27.522Z,49.10
2018-07-23T22:07:58.495Z,49.87
2018-07-23T22:10:29.811Z,50.42
2018-07-23T22:13:00.757Z,50.52
2018-07-23T22:15:31.893Z,50.69
2018-07-23T22:18:04.054Z,50.38
2018-07-23T22:20:35.235Z,51.08
2018-07-23T22:23:06.781Z,51.68
2018-07-23T22:25:38.087Z,52.00
2018-07-23T22:28:09.388Z,53.03
2018-07-23T22:30:40.242Z,52.58
2018-07-23T22:33:11.167Z,52.81
2018-07-23T22:35:52.677Z,53.05
2018-07-23T22:38:25.166Z,53.37
2018-07-23T22:40:59.754Z,52.85
2018-07-23T22:46:52.740Z,53.17
2018-07-23T22:49:24.261Z,53.68
2018-07-23T22:51:56.015Z,54.08
2018-07-23T22:54:28.549Z,53.47
2018-07-23T22:57:00.015Z,54.75
2018-07-23T22:59:30.885Z,54.89
2018-07-23T23:02:03.464Z,55.28
2018-07-23T23:04:34.426Z,54.35
2018-07-23T23:07:05.851Z,54.79
2018-07-23T23:09:38.442Z,55.16
2018-07-23T23:12:10.193Z,55.61
2018-07-23T23:14:54.005Z,55.12
2018-07-23T23:17:25.873Z,55.30
2018-07-23T23:19:56.783Z,55.42
2018-07-23T23:22:27.695Z,55.52
2018-07-23T23:24:58.353Z,54.69
2018-07-23T23:27:29.331Z,54.99
2018-07-23T23:30:00.736Z,55.81
2018-07-23T23:32:31.531Z,55.92
2018-07-23T23:35:02.841Z,55.52
2018-07-23T23:37:34.082Z,55.41
2018-07-23T23:40:05.089Z,55.65
2018-07-23T23:42:35.979Z,56.06
2018-07-23T23:45:07.206Z,55.35
2018-07-23T23:47:38.138Z,56.29
2018-07-23T23:50:09.052Z,55.69
2018-07-23T23:52:39.983Z,56.47
2018-07-23T23:55:11.243Z,56.81
2018-07-23T23:57:42.283Z,56.67
